Time;durP1;ratioP1;P1;durP2;ratioP2;P2;SDS_P1;SDS_P2;PMS_P1;PMS_P2;Temp;Humidity;BMP_temperature;BMP_pressure;BME280_temperature;BME280_humidity;BME280_pressure;Samples;Min_cycle;Max_cycle;Signal;HPM_P1;HPM_P2
2023/10/16 00:01:09;;;;;;;7.10;5.13;;;4.40;99.90;;;;;;5054182;28;20202;-86
2023/10/16 00:03:38;;;;;;;6.43;3.60;;;4.30;99.90;;;;;;5052839;28;20222;-86
2023/10/16 00:06:06;;;;;;;6.20;3.57;;;4.20;99.90;;;;;;5050394;28;20281;-85
2023/10/16 00:08:34;;;;;;;5.47;3.13;;;4.20;99.90;;;;;;5053812;28;20213;-86
2023/10/16 00:11:04;;;;;;;4.67;3.97;;;4.10;99.90;;;;;;5050945;28;20733;-86
2023/10/16 00:13:35;;;;;;;3.73;3.10;;;4.00;99.90;;;;;;5053480;28;20205;-86
2023/10/16 00:16:03;;;;;;;8.53;5.63;;;4.00;99.90;;;;;;5037258;28;20201;-86
2023/10/16 00:18:33;;;;;;;9.27;3.60;;;4.10;99.90;;;;;;5053963;28;20654;-85
2023/10/16 00:21:04;;;;;;;3.90;3.30;;;4.20;99.90;;;;;;5050469;28;20643;-86
2023/10/16 00:23:37;;;;;;;5.70;4.50;;;4.10;99.90;;;;;;5053693;28;20202;-86
2023/10/16 00:26:07;;;;;;;6.57;4.00;;;4.00;99.90;;;;;;5043946;28;20194;-86
2023/10/16 00:28:34;;;;;;;4.10;3.20;;;3.90;99.90;;;;;;5037574;28;20212;-86
2023/10/16 00:31:03;;;;;;;4.30;3.30;;;3.80;99.90;;;;;;5053921;28;20222;-86
2023/10/16 00:33:31;;;;;;;6.10;3.33;;;3.80;99.90;;;;;;5054893;28;20202;-86
2023/10/16 00:36:00;;;;;;;3.37;3.07;;;3.70;99.90;;;;;;5035267;28;20226;-86
2023/10/16 00:38:26;;;;;;;9.63;7.60;;;3.60;99.90;;;;;;5053448;28;20193;-86
2023/10/16 00:41:16;;;;;;;9.73;6.83;;;3.80;99.90;;;;;;5043600;28;20532;-86
2023/10/16 00:43:43;;;;;;;6.13;3.50;;;4.10;99.90;;;;;;5052633;28;20190;-86
2023/10/16 00:46:14;;;;;;;4.73;2.90;;;4.10;99.90;;;;;;5052855;28;20193;-86
2023/10/16 00:48:42;;;;;;;4.73;3.83;;;3.90;99.90;;;;;;5053103;28;20198;-85
2023/10/16 00:51:10;;;;;;;4.63;2.80;;;3.80;99.90;;;;;;5053021;28;20712;-85
2023/10/16 00:53:38;;;;;;;3.50;2.83;;;3.60;99.90;;;;;;5050586;28;20214;-86
2023/10/16 00:56:08;;;;;;;6.03;4.73;;;3.50;99.90;;;;;;5052755;28;20206;-86
2023/10/16 00:58:35;;;;;;;5.07;4.20;;;3.50;99.90;;;;;;5041003;28;20244;-85
2023/10/16 01:01:08;;;;;;;6.13;4.10;;;3.70;99.90;;;;;;5048836;28;20225;-86
2023/10/16 01:03:36;;;;;;;4.33;3.10;;;3.70;99.90;;;;;;5050626;28;20233;-85
2023/10/16 01:06:09;;;;;;;3.10;2.80;;;3.70;99.90;;;;;;5056355;28;20272;-85
2023/10/16 01:08:38;;;;;;;3.23;2.60;;;3.50;99.90;;;;;;5049588;28;20593;-85
2023/10/16 01:11:09;;;;;;;3.87;2.87;;;3.40;99.90;;;;;;5052151;28;20317;-85
2023/10/16 01:13:38;;;;;;;3.37;2.83;;;3.30;99.90;;;;;;5036606;28;20222;-86
2023/10/16 01:16:09;;;;;;;4.67;3.20;;;3.20;99.90;;;;;;5049097;28;20686;-86
2023/10/16 01:18:37;;;;;;;4.30;2.97;;;3.20;99.90;;;;;;5048443;28;20244;-86
2023/10/16 01:21:05;;;;;;;3.80;3.03;;;3.10;99.90;;;;;;5049568;28;20339;-86
2023/10/16 01:23:35;;;;;;;4.20;3.20;;;3.10;99.90;;;;;;5030940;28;20294;-86
2023/10/16 01:26:02;;;;;;;3.90;2.93;;;3.10;99.90;;;;;;5049814;28;20206;-86
2023/10/16 01:28:30;;;;;;;3.20;2.90;;;3.20;99.90;;;;;;5046411;28;20221;-86
2023/10/16 01:30:57;;;;;;;5.27;3.60;;;3.10;99.90;;;;;;5052762;28;20222;-86
2023/10/16 01:33:24;;;;;;;7.27;4.83;;;3.30;99.90;;;;;;5040893;28;20194;-86
2023/10/16 01:35:51;;;;;;;5.37;4.00;;;3.70;99.90;;;;;;5052602;28;20673;-85
2023/10/16 01:38:19;;;;;;;3.70;2.83;;;3.80;99.90;;;;;;5033178;28;20226;-85
2023/10/16 01:41:02;;;;;;;5.27;3.17;;;3.70;99.90;;;;;;5051899;28;20213;-85
2023/10/16 01:43:29;;;;;;;4.13;2.93;;;3.50;99.90;;;;;;5051349;28;20200;-85
2023/10/16 01:45:58;;;;;;;4.43;3.00;;;3.30;99.90;;;;;;5050418;28;20198;-85
2023/10/16 01:48:27;;;;;;;4.43;2.80;;;3.30;99.90;;;;;;5051902;28;20194;-86
2023/10/16 01:50:54;;;;;;;4.10;2.77;;;3.20;99.90;;;;;;5049612;28;20733;-86
2023/10/16 01:53:25;;;;;;;3.37;2.73;;;3.20;99.90;;;;;;5032282;28;20200;-86
2023/10/16 01:55:55;;;;;;;3.00;2.70;;;3.10;99.90;;;;;;5046751;28;20209;-85
2023/10/16 01:58:30;;;;;;;3.33;2.43;;;3.00;99.90;;;;;;5045617;28;20979;-85
2023/10/16 02:00:57;;;;;;;4.70;3.27;;;2.90;99.90;;;;;;5049998;28;20200;-85
2023/10/16 02:03:25;;;;;;;5.87;3.80;;;2.80;99.90;;;;;;5039091;28;20579;-86
2023/10/16 02:05:53;;;;;;;4.43;3.30;;;2.80;99.90;;;;;;5049881;28;20662;-85
2023/10/16 02:08:21;;;;;;;3.23;2.67;;;2.80;99.90;;;;;;5052420;28;20560;-86
2023/10/16 02:10:50;;;;;;;3.70;2.67;;;2.70;99.90;;;;;;5051874;28;20221;-84
2023/10/16 02:13:18;;;;;;;3.13;2.80;;;2.70;99.90;;;;;;5043404;28;20220;-85
2023/10/16 02:15:47;;;;;;;4.83;2.80;;;2.70;99.90;;;;;;5027403;28;20272;-86
2023/10/16 02:18:22;;;;;;;2.93;2.50;;;2.70;99.90;;;;;;5054457;28;20251;-85
2023/10/16 02:20:50;;;;;;;7.13;2.90;;;2.70;99.90;;;;;;5050621;28;20287;-86
2023/10/16 02:23:17;;;;;;;5.40;2.90;;;2.70;99.90;;;;;;5041481;28;20198;-85
2023/10/16 02:25:45;;;;;;;3.90;2.70;;;2.60;99.90;;;;;;5051081;28;20198;-85
2023/10/16 02:28:13;;;;;;;2.57;2.37;;;2.70;99.90;;;;;;5048035;28;20300;-85
2023/10/16 02:30:41;;;;;;;5.17;2.50;;;2.70;99.90;;;;;;5051442;28;20244;-86
2023/10/16 02:33:18;;;;;;;2.70;2.50;;;2.60;99.90;;;;;;5052493;28;20193;-85
2023/10/16 02:35:50;;;;;;;2.70;2.50;;;2.60;99.90;;;;;;5050546;28;20193;-85
2023/10/16 02:38:23;;;;;;;5.93;3.10;;;2.60;99.90;;;;;;5055319;28;20665;-86
2023/10/16 02:40:53;;;;;;;3.60;3.00;;;2.60;99.90;;;;;;5051235;28;20209;-86
2023/10/16 02:43:20;;;;;;;3.80;3.20;;;2.60;99.90;;;;;;5026948;28;20194;-85
2023/10/16 02:45:52;;;;;;;3.40;3.03;;;2.60;99.90;;;;;;5032322;28;20301;-85
2023/10/16 02:48:20;;;;;;;3.03;2.50;;;3.00;99.90;;;;;;5049385;28;20255;-85
2023/10/16 02:50:53;;;;;;;3.13;2.80;;;3.10;99.90;;;;;;5050671;28;20620;-86
2023/10/16 02:53:22;;;;;;;5.23;2.43;;;3.00;99.90;;;;;;5050506;28;20288;-85
2023/10/16 02:55:53;;;;;;;3.30;3.00;;;3.00;99.90;;;;;;5050469;28;20209;-86
2023/10/16 02:58:22;;;;;;;3.00;2.60;;;2.90;99.90;;;;;;5045802;28;20186;-85
2023/10/16 03:00:53;;;;;;;3.33;2.73;;;2.90;99.90;;;;;;5049537;28;20202;-85
2023/10/16 03:03:20;;;;;;;3.67;2.80;;;2.90;99.90;;;;;;5046620;28;20201;-85
2023/10/16 03:05:49;;;;;;;2.77;2.33;;;3.00;99.90;;;;;;5048357;28;20210;-86
2023/10/16 03:08:18;;;;;;;2.97;2.33;;;3.20;99.90;;;;;;5051119;28;20612;-86
2023/10/16 03:10:45;;;;;;;3.33;2.90;;;3.00;99.90;;;;;;5054830;28;20261;-86
2023/10/16 03:13:14;;;;;;;3.10;2.60;;;2.80;99.80;;;;;;5047394;28;20583;-86
2023/10/16 03:15:46;;;;;;;3.63;2.60;;;2.90;99.90;;;;;;5048430;28;20206;-85
2023/10/16 03:18:22;;;;;;;3.63;2.63;;;3.10;99.90;;;;;;5029412;28;20240;-85
2023/10/16 03:21:00;;;;;;;3.27;2.57;;;3.10;99.80;;;;;;5044332;28;20216;-85
2023/10/16 03:23:28;;;;;;;4.57;2.50;;;3.20;99.90;;;;;;5043576;28;20201;-86
2023/10/16 03:25:56;;;;;;;3.27;2.20;;;3.20;99.90;;;;;;5025248;28;20202;-86
2023/10/16 03:28:23;;;;;;;4.13;2.00;;;3.20;99.90;;;;;;5042077;28;20198;-85
2023/10/16 03:30:50;;;;;;;2.50;2.30;;;3.30;99.90;;;;;;5050409;28;20330;-85
2023/10/16 03:33:19;;;;;;;3.30;1.90;;;3.20;99.90;;;;;;5046829;28;20201;-86
2023/10/16 03:35:49;;;;;;;3.13;2.03;;;3.10;98.90;;;;;;5050215;28;20239;-86
2023/10/16 03:38:24;;;;;;;2.27;2.00;;;2.80;99.00;;;;;;5049795;28;20233;-85
2023/10/16 03:40:52;;;;;;;3.70;2.50;;;2.80;99.80;;;;;;5051922;28;21111;-85
2023/10/16 03:43:20;;;;;;;4.87;2.60;;;2.70;99.80;;;;;;5029326;28;20191;-85
2023/10/16 03:45:46;;;;;;;3.33;2.30;;;2.60;99.70;;;;;;5048297;28;20198;-85
2023/10/16 03:48:16;;;;;;;2.87;2.20;;;2.40;99.70;;;;;;5054534;28;20198;-85
2023/10/16 03:50:46;;;;;;;2.27;2.07;;;2.30;99.70;;;;;;5038759;28;20756;-85
2023/10/16 03:53:14;;;;;;;2.83;2.33;;;2.40;99.90;;;;;;5047260;28;20206;-86
2023/10/16 03:55:48;;;;;;;3.00;2.23;;;2.30;99.90;;;;;;5053697;28;20270;-85
2023/10/16 03:58:16;;;;;;;2.87;2.03;;;2.20;99.90;;;;;;5049026;28;20251;-85
2023/10/16 04:00:56;;;;;;;3.93;2.07;;;2.20;99.90;;;;;;5055782;28;20257;-85
2023/10/16 04:03:25;;;;;;;2.57;2.37;;;2.20;99.90;;;;;;5052584;28;20201;-86
2023/10/16 04:05:54;;;;;;;2.57;2.23;;;2.40;99.90;;;;;;5053665;28;20555;-85
2023/10/16 04:08:23;;;;;;;2.80;2.20;;;2.40;99.90;;;;;;5053664;28;20206;-86
2023/10/16 04:10:53;;;;;;;3.00;2.37;;;2.40;99.90;;;;;;5039178;28;20233;-85
2023/10/16 04:13:25;;;;;;;2.47;2.27;;;2.40;99.90;;;;;;5052704;28;20213;-86
2023/10/16 04:16:09;;;;;;;3.30;2.40;;;2.30;99.90;;;;;;5054137;28;20260;-85
2023/10/16 04:18:39;;;;;;;2.70;2.17;;;2.20;99.90;;;;;;5055055;28;20712;-85
2023/10/16 04:23:55;;;;;;;3.90;2.43;;;2.20;99.90;;;;;;5052790;28;20205;-85
2023/10/16 04:29:25;;;;;;;4.87;3.07;;;2.10;99.90;;;;;;5011099;28;20194;-86
2023/10/16 04:31:58;;;;;;;3.30;2.40;;;2.20;99.90;;;;;;5045314;28;20217;-86
2023/10/16 04:34:32;;;;;;;4.43;2.13;;;2.20;99.90;;;;;;5050805;28;20661;-85
2023/10/16 04:45:28;;;;;;;2.77;2.30;;;2.30;99.90;;;;;;5035394;28;20209;-85
2023/10/16 04:48:06;;;;;;;4.03;2.27;;;2.40;99.90;;;;;;5036098;28;20205;-85
2023/10/16 04:51:09;;;;;;;2.80;2.40;;;2.20;99.90;;;;;;5032163;28;20229;-86
2023/10/16 04:53:47;;;;;;;3.20;2.67;;;2.30;99.90;;;;;;5049392;28;20194;-89
2023/10/16 04:56:29;;;;;;;2.57;2.00;;;2.40;99.90;;;;;;5053577;28;20259;-88
2023/10/16 04:58:59;;;;;;;2.90;2.20;;;2.20;99.90;;;;;;5053740;28;20189;-87
2023/10/16 05:01:55;;;;;;;4.03;2.57;;;2.10;99.90;;;;;;5049367;28;20190;-87
2023/10/16 05:07:16;;;;;;;4.63;3.47;;;2.40;99.90;;;;;;5046905;28;20197;-87
2023/10/16 05:15:37;;;;;;;11.80;7.70;;;2.30;99.90;;;;;;5049031;28;20225;-87
2023/10/16 05:18:20;;;;;;;13.90;7.40;;;2.20;99.90;;;;;;5052160;28;20752;-87
2023/10/16 05:21:06;;;;;;;8.73;5.70;;;2.10;99.90;;;;;;5050682;28;20632;-87
2023/10/16 06:15:45;;;;;;;6.17;3.73;;;2.30;99.90;;;;;;5049021;28;20213;-87
2023/10/16 06:18:12;;;;;;;6.30;3.73;;;2.50;99.90;;;;;;5047078;28;20200;-87
2023/10/16 06:20:43;;;;;;;6.60;3.87;;;2.40;99.90;;;;;;5028810;28;20194;-87
2023/10/16 06:23:11;;;;;;;5.30;3.47;;;2.40;99.90;;;;;;5051203;28;20204;-87
2023/10/16 06:25:38;;;;;;;5.90;3.50;;;2.30;99.90;;;;;;5051151;28;20200;-87
2023/10/16 06:28:10;;;;;;;3.90;3.40;;;2.40;99.90;;;;;;5035727;28;20251;-87
2023/10/16 06:30:38;;;;;;;4.07;3.03;;;2.40;99.90;;;;;;5049206;28;20456;-90
2023/10/16 06:33:07;;;;;;;5.93;2.90;;;2.50;99.90;;;;;;5046657;28;20190;-86
2023/10/16 06:35:34;;;;;;;3.97;3.20;;;2.50;99.90;;;;;;5042380;28;20199;-88
2023/10/16 06:38:02;;;;;;;4.37;3.20;;;2.70;99.90;;;;;;5047298;28;20219;-87
2023/10/16 06:40:32;;;;;;;5.53;3.20;;;2.80;99.90;;;;;;5016665;28;20812;-87
2023/10/16 06:43:10;;;;;;;5.33;3.43;;;2.90;99.90;;;;;;5045012;28;20198;-87
2023/10/16 06:45:42;;;;;;;4.03;2.90;;;3.10;99.90;;;;;;5047881;28;20197;-86
2023/10/16 06:48:15;;;;;;;4.67;3.23;;;3.50;99.90;;;;;;5045335;28;20201;-87
2023/10/16 06:50:53;;;;;;;7.23;3.13;;;3.60;99.90;;;;;;5050631;28;20225;-87
2023/10/16 06:53:22;;;;;;;5.33;3.17;;;3.60;99.90;;;;;;5050330;28;20858;-86
2023/10/16 06:55:50;;;;;;;3.97;3.07;;;3.60;99.90;;;;;;5049908;28;20600;-87
2023/10/16 06:58:18;;;;;;;7.20;3.43;;;3.60;99.90;;;;;;5015317;28;20198;-86
2023/10/16 07:00:47;;;;;;;4.63;3.50;;;3.70;99.90;;;;;;5050722;28;20245;-86
2023/10/16 07:03:16;;;;;;;5.40;3.83;;;3.80;99.90;;;;;;5052358;28;20277;-86
2023/10/16 07:05:43;;;;;;;5.10;3.60;;;3.90;99.90;;;;;;5053194;28;20209;-87
2023/10/16 07:08:10;;;;;;;6.03;3.93;;;4.10;99.90;;;;;;5035166;28;20198;-86
2023/10/16 07:10:42;;;;;;;7.60;4.27;;;4.10;99.90;;;;;;5049105;28;20198;-85
2023/10/16 07:13:09;;;;;;;5.27;4.07;;;4.10;99.90;;;;;;5025741;28;20198;-85
2023/10/16 07:15:36;;;;;;;7.33;3.90;;;4.20;99.90;;;;;;5043260;28;20289;-85
2023/10/16 07:18:04;;;;;;;7.83;4.20;;;4.40;99.90;;;;;;5053697;28;20662;-86
2023/10/16 07:20:34;;;;;;;5.27;3.97;;;4.60;99.90;;;;;;5051669;28;20197;-86
2023/10/16 07:23:02;;;;;;;6.23;4.60;;;4.60;99.90;;;;;;5029889;28;20194;-86
2023/10/16 07:25:47;;;;;;;5.57;4.30;;;4.60;99.90;;;;;;5033701;28;20647;-86
2023/10/16 07:28:15;;;;;;;7.77;4.10;;;4.70;99.90;;;;;;5037674;28;20202;-86
2023/10/16 07:30:43;;;;;;;7.17;3.77;;;4.70;99.90;;;;;;5051740;28;20213;-85
2023/10/16 07:33:14;;;;;;;4.80;3.57;;;4.80;99.90;;;;;;5043835;28;20220;-85
2023/10/16 07:35:44;;;;;;;5.87;3.80;;;5.00;99.90;;;;;;5046612;28;20662;-85
2023/10/16 07:38:11;;;;;;;5.03;3.90;;;5.30;99.90;;;;;;5056200;28;20212;-86
2023/10/16 07:40:38;;;;;;;5.17;4.03;;;5.40;99.80;;;;;;5052221;28;20546;-87
2023/10/16 07:43:05;;;;;;;6.57;3.73;;;5.50;99.50;;;;;;5050682;28;20197;-86
2023/10/16 07:45:33;;;;;;;3.77;3.20;;;5.50;99.40;;;;;;5045060;28;20285;-85
2023/10/16 07:48:07;;;;;;;6.10;3.63;;;5.70;99.10;;;;;;5043022;28;20198;-87
2023/10/16 07:50:38;;;;;;;4.20;3.10;;;5.70;98.50;;;;;;5048697;28;20206;-85
2023/10/16 07:53:08;;;;;;;5.57;3.17;;;5.70;99.00;;;;;;5049688;28;20214;-87
2023/10/16 07:55:42;;;;;;;6.40;3.43;;;6.00;98.50;;;;;;5051764;28;20605;-86
2023/10/16 07:58:16;;;;;;;6.20;3.63;;;6.10;97.90;;;;;;5044688;28;20190;-87
2023/10/16 08:00:57;;;;;;;3.50;3.20;;;6.20;97.40;;;;;;5047533;28;20304;-88
2023/10/16 08:03:26;;;;;;;4.90;3.17;;;6.20;96.90;;;;;;5043678;28;20208;-88
2023/10/16 08:05:53;;;;;;;4.67;2.90;;;6.30;97.20;;;;;;5053873;28;20900;-88
2023/10/16 08:08:35;;;;;;;5.30;3.10;;;6.50;97.20;;;;;;5053072;28;20205;-88
2023/10/16 08:11:12;;;;;;;4.43;3.10;;;6.50;96.70;;;;;;5046477;28;20222;-88
2023/10/16 08:13:46;;;;;;;4.53;3.10;;;6.70;97.30;;;;;;5051943;28;20193;-88
2023/10/16 08:16:17;;;;;;;5.33;3.00;;;6.60;96.00;;;;;;5041197;28;20190;-87
2023/10/16 08:18:48;;;;;;;4.00;3.07;;;6.70;96.00;;;;;;5044563;28;20266;-87
2023/10/16 08:21:23;;;;;;;4.27;3.00;;;6.70;96.30;;;;;;5053682;28;20205;-86
2023/10/16 08:23:53;;;;;;;5.40;3.30;;;6.80;95.90;;;;;;5052040;28;20209;-86
2023/10/16 08:26:42;;;;;;;2.87;2.67;;;6.80;96.10;;;;;;5050588;28;20310;-86
2023/10/16 08:29:17;;;;;;;3.87;3.10;;;6.80;96.20;;;;;;5047267;28;20189;-89
2023/10/16 08:31:47;;;;;;;4.37;3.20;;;6.70;96.00;;;;;;5033502;28;20236;-86
2023/10/16 08:34:19;;;;;;;6.57;2.97;;;7.00;96.10;;;;;;5047622;28;20191;-87
2023/10/16 08:36:50;;;;;;;6.00;3.30;;;7.20;95.50;;;;;;5045677;28;20277;-87
2023/10/16 08:39:21;;;;;;;4.50;2.60;;;7.40;94.80;;;;;;5057597;28;20286;-88
2023/10/16 08:41:52;;;;;;;3.28;2.97;;;7.50;95.20;;;;;;5036473;28;20208;-89
2023/10/16 08:44:21;;;;;;;3.78;3.00;;;7.50;93.80;;;;;;5053153;28;20210;-89
2023/10/16 08:49:31;;;;;;;3.60;3.17;;;7.60;94.50;;;;;;5029758;28;20200;-89
2023/10/16 08:52:04;;;;;;;3.00;2.70;;;8.00;93.70;;;;;;5037427;28;20217;-88
2023/10/16 08:55:00;;;;;;;3.88;2.85;;;8.60;91.40;;;;;;5052680;28;20654;-87
2023/10/16 08:57:27;;;;;;;4.55;3.08;;;8.80;89.50;;;;;;5050918;28;20204;-88
2023/10/16 08:59:58;;;;;;;3.60;2.90;;;8.10;90.30;;;;;;5053527;28;20418;-85
2023/10/16 09:02:27;;;;;;;4.18;2.95;;;7.90;92.00;;;;;;5052969;28;20205;-88
2023/10/16 09:04:56;;;;;;;4.60;2.95;;;8.40;91.50;;;;;;5052759;28;20213;-88
2023/10/16 09:07:25;;;;;;;4.55;2.90;;;9.00;90.50;;;;;;5038926;28;20198;-88
2023/10/16 09:12:44;;;;;;;4.32;3.50;;;10.90;70.40;;;;;;5027832;28;20210;-87
2023/10/16 09:15:15;;;;;;;4.57;2.70;;;12.20;53.60;;;;;;5051590;28;20189;-88
2023/10/16 09:17:42;;;;;;;2.50;2.20;;;13.90;36.40;;;;;;5049010;28;20202;-88
2023/10/16 09:20:13;;;;;;;2.47;2.20;;;14.50;28.10;;;;;;5051807;28;20208;-88
2023/10/16 09:22:45;;;;;;;2.67;2.40;;;15.20;25.10;;;;;;5032968;28;20194;-89
2023/10/16 09:25:15;;;;;;;3.55;2.60;;;15.70;21.60;;;;;;5029227;28;20197;-90
2023/10/16 09:27:42;;;;;;;3.75;3.40;;;14.90;24.70;;;;;;5052130;28;20209;-89
2023/10/16 09:30:14;;;;;;;4.10;3.05;;;15.30;22.90;;;;;;5046073;28;20205;-90
2023/10/16 09:32:42;;;;;;;5.25;2.60;;;14.60;23.90;;;;;;5049695;28;20216;-91
2023/10/16 09:35:13;;;;;;;3.08;2.63;;;15.60;22.60;;;;;;5052924;28;20247;-89
2023/10/16 09:37:40;;;;;;;2.67;2.30;;;16.00;19.90;;;;;;5052868;28;20209;-90
2023/10/16 09:40:19;;;;;;;2.60;2.40;;;16.50;19.40;;;;;;5046630;28;20202;-88
2023/10/16 09:42:55;;;;;;;4.10;2.60;;;16.00;19.00;;;;;;5050430;28;20646;-84
2023/10/16 09:45:23;;;;;;;3.22;2.92;;;15.80;20.50;;;;;;5044839;28;20685;-85
2023/10/16 09:47:52;;;;;;;2.95;2.55;;;16.40;19.60;;;;;;5050987;28;20253;-85
2023/10/16 09:50:19;;;;;;;3.85;2.50;;;16.40;18.00;;;;;;5033169;28;20704;-88
2023/10/16 09:52:48;;;;;;;3.88;2.60;;;16.00;19.90;;;;;;5045267;28;20218;-87
2023/10/16 09:55:18;;;;;;;3.45;2.60;;;15.70;19.40;;;;;;5042550;28;20686;-86
2023/10/16 09:57:52;;;;;;;2.88;2.58;;;16.70;17.80;;;;;;5051910;28;20201;-86
2023/10/16 10:00:28;;;;;;;2.53;2.33;;;17.50;16.60;;;;;;5047340;28;20627;-86
2023/10/16 10:02:58;;;;;;;3.17;2.50;;;17.20;16.50;;;;;;5049403;28;20197;-87
2023/10/16 10:05:34;;;;;;;3.53;2.78;;;16.40;18.00;;;;;;5036030;28;20205;-88
2023/10/16 10:08:15;;;;;;;5.07;2.60;;;15.90;18.40;;;;;;5035298;28;20194;-88
2023/10/16 10:13:35;;;;;;;2.85;2.10;;;14.60;23.70;;;;;;5047801;28;20221;-89
2023/10/16 10:16:14;;;;;;;3.63;2.28;;;14.80;23.20;;;;;;5052839;28;20320;-89
2023/10/16 10:18:47;;;;;;;4.13;2.40;;;14.70;22.30;;;;;;5035779;28;20284;-88
2023/10/16 10:21:27;;;;;;;3.25;2.35;;;15.10;22.10;;;;;;5046804;28;20666;-88
2023/10/16 10:24:00;;;;;;;4.20;2.70;;;15.60;19.80;;;;;;5051141;28;20564;-88
2023/10/16 10:26:27;;;;;;;4.90;2.33;;;15.70;19.00;;;;;;5038246;28;20199;-88
2023/10/16 10:29:10;;;;;;;6.93;2.40;;;15.50;18.70;;;;;;5051032;28;20202;-88
2023/10/16 10:31:38;;;;;;;3.85;2.10;;;14.80;21.20;;;;;;5045143;28;20197;-88
2023/10/16 10:34:23;;;;;;;3.75;1.90;;;14.60;19.50;;;;;;5051424;28;20205;-88
2023/10/16 10:36:50;;;;;;;3.22;2.05;;;13.90;20.20;;;;;;5048955;28;20229;-88
2023/10/16 10:39:45;;;;;;;3.90;2.10;;;13.70;22.30;;;;;;5052204;28;20205;-88
2023/10/16 10:42:24;;;;;;;2.83;1.73;;;13.50;25.40;;;;;;5027831;28;20561;-88
2023/10/16 10:45:17;;;;;;;4.22;1.92;;;13.70;22.50;;;;;;5052917;28;20194;-86
2023/10/16 10:47:45;;;;;;;3.95;2.08;;;14.00;22.40;;;;;;5046465;28;20201;-88
2023/10/16 10:50:14;;;;;;;2.20;2.00;;;14.70;21.60;;;;;;5036809;28;20956;-88
2023/10/16 10:52:43;;;;;;;4.80;2.53;;;14.70;20.10;;;;;;5053486;28;20236;-88
2023/10/16 10:55:22;;;;;;;3.03;2.25;;;14.80;20.80;;;;;;5039321;28;20554;-87
2023/10/16 10:57:56;;;;;;;4.63;2.33;;;14.90;19.30;;;;;;5056573;28;20639;-87
2023/10/16 11:03:30;;;;;;;2.92;2.10;;;13.70;25.70;;;;;;5037569;28;20561;-87
2023/10/16 11:05:58;;;;;;;2.78;2.13;;;13.00;22.00;;;;;;5055288;28;20193;-87
2023/10/16 11:08:29;;;;;;;2.33;1.90;;;13.00;22.80;;;;;;5054479;28;20206;-87
2023/10/16 11:10:57;;;;;;;3.95;2.38;;;13.00;24.80;;;;;;5055836;28;20256;-88
2023/10/16 11:13:26;;;;;;;6.82;3.40;;;13.10;24.60;;;;;;5056099;28;20229;-87
2023/10/16 11:15:58;;;;;;;4.55;2.50;;;12.90;26.10;;;;;;5054808;28;20201;-87
2023/10/16 11:18:27;;;;;;;4.88;2.63;;;12.90;25.30;;;;;;5053249;28;20196;-88
2023/10/16 11:20:54;;;;;;;18.48;12.82;;;12.90;22.20;;;;;;5055694;28;20643;-87
2023/10/16 11:23:25;;;;;;;5.43;2.63;;;12.60;25.80;;;;;;5055870;28;20204;-87
2023/10/16 11:25:53;;;;;;;5.25;2.60;;;12.70;23.70;;;;;;5036030;28;20194;-88
2023/10/16 11:28:21;;;;;;;4.50;2.50;;;12.60;25.30;;;;;;5035368;28;20198;-87
2023/10/16 11:30:53;;;;;;;5.18;2.22;;;12.50;24.00;;;;;;5056371;28;20559;-86
2023/10/16 11:33:43;;;;;;;5.00;3.20;;;12.50;25.70;;;;;;5046781;28;20276;-90
2023/10/16 11:36:13;;;;;;;4.38;3.00;;;12.20;25.50;;;;;;5047812;28;20226;-88
2023/10/16 11:38:41;;;;;;;4.07;3.40;;;12.40;25.70;;;;;;5044590;28;20293;-90
2023/10/16 11:41:12;;;;;;;3.95;3.10;;;12.50;28.40;;;;;;5040355;28;20296;-87
2023/10/16 11:43:47;;;;;;;5.32;2.80;;;12.70;26.10;;;;;;5049362;28;20640;-87
2023/10/16 11:46:28;;;;;;;3.90;3.03;;;12.50;29.40;;;;;;5050595;28;20205;-90
2023/10/16 11:49:17;;;;;;;3.63;3.03;;;12.50;30.20;;;;;;5040150;28;20206;-90
2023/10/16 11:51:45;;;;;;;5.10;3.22;;;12.30;31.50;;;;;;5033903;28;20229;-90
2023/10/16 11:54:12;;;;;;;5.22;2.95;;;12.20;29.90;;;;;;5042121;28;20222;-87
2023/10/16 11:56:41;;;;;;;6.93;3.70;;;12.30;31.10;;;;;;5038618;28;20225;-87
2023/10/16 11:59:12;;;;;;;4.80;3.20;;;12.30;31.90;;;;;;5037907;28;20201;-86
2023/10/16 12:01:38;;;;;;;3.80;3.05;;;12.30;34.60;;;;;;5052239;28;20224;-87
2023/10/16 12:04:09;;;;;;;4.95;3.08;;;12.20;31.90;;;;;;5037592;28;20320;-86
2023/10/16 12:06:38;;;;;;;3.50;3.17;;;12.00;32.50;;;;;;5051653;28;20229;-87
2023/10/16 12:09:06;;;;;;;4.22;3.35;;;11.80;33.10;;;;;;5032208;28;20202;-86
2023/10/16 12:11:33;;;;;;;5.82;3.22;;;11.80;37.10;;;;;;5048223;28;20235;-86
2023/10/16 12:14:00;;;;;;;3.83;3.08;;;12.10;33.60;;;;;;5055068;28;20225;-85
2023/10/16 12:16:27;;;;;;;3.40;2.80;;;12.30;32.20;;;;;;5053582;28;20190;-85
2023/10/16 12:18:56;;;;;;;4.13;3.00;;;12.20;31.80;;;;;;5051804;28;20201;-87
2023/10/16 12:21:25;;;;;;;4.60;3.10;;;12.00;33.20;;;;;;5035574;28;20199;-86
2023/10/16 12:23:53;;;;;;;5.90;3.45;;;11.90;33.80;;;;;;5051163;28;20221;-85
2023/10/16 12:26:20;;;;;;;5.45;3.00;;;12.00;33.80;;;;;;5052978;28;20208;-85
2023/10/16 12:28:47;;;;;;;6.13;3.17;;;12.30;29.10;;;;;;5049900;28;20205;-86
2023/10/16 12:31:14;;;;;;;4.22;3.28;;;12.20;31.60;;;;;;5047505;28;20689;-85
2023/10/16 12:33:41;;;;;;;6.07;3.22;;;12.10;30.40;;;;;;5046274;28;20222;-86
2023/10/16 12:36:10;;;;;;;3.53;3.00;;;11.60;31.80;;;;;;5029257;28;20712;-87
2023/10/16 12:38:39;;;;;;;4.60;3.40;;;11.60;34.00;;;;;;5052338;28;20202;-86
2023/10/16 12:41:08;;;;;;;6.15;3.30;;;11.80;31.40;;;;;;5046966;28;20225;-85
2023/10/16 12:43:36;;;;;;;5.03;3.05;;;11.80;32.70;;;;;;5046383;28;20299;-86
2023/10/16 12:46:03;;;;;;;4.20;2.80;;;11.80;31.80;;;;;;5052222;28;20734;-88
2023/10/16 12:48:30;;;;;;;4.95;2.60;;;11.70;32.20;;;;;;5053395;28;20204;-87
2023/10/16 12:51:00;;;;;;;4.95;3.05;;;11.50;35.40;;;;;;5053006;28;20226;-88
2023/10/16 12:53:29;;;;;;;5.68;2.88;;;11.30;34.40;;;;;;5049787;28;20245;-86
2023/10/16 12:55:58;;;;;;;4.07;3.17;;;11.30;40.10;;;;;;5043851;28;20264;-87
2023/10/16 12:58:27;;;;;;;7.28;3.00;;;11.30;36.50;;;;;;5041950;28;20198;-87
2023/10/16 13:00:57;;;;;;;4.60;2.88;;;11.10;37.40;;;;;;5052565;28;20206;-87
2023/10/16 13:03:25;;;;;;;5.10;3.33;;;11.10;38.40;;;;;;5037431;28;20198;-87
2023/10/16 13:05:53;;;;;;;5.57;2.90;;;11.20;36.40;;;;;;5051441;28;20202;-87
2023/10/16 13:08:21;;;;;;;4.85;2.85;;;11.30;35.80;;;;;;5052131;28;20202;-87
2023/10/16 13:10:51;;;;;;;4.97;3.00;;;11.30;34.80;;;;;;5052763;28;20591;-86
2023/10/16 13:13:21;;;;;;;5.53;2.58;;;11.50;32.80;;;;;;5050102;28;20221;-87
2023/10/16 13:15:52;;;;;;;4.20;2.60;;;11.50;34.10;;;;;;5042453;28;20214;-87
2023/10/16 13:18:27;;;;;;;5.13;2.63;;;11.60;30.90;;;;;;5031678;28;20194;-87
2023/10/16 13:20:57;;;;;;;5.80;2.60;;;11.40;32.00;;;;;;5047139;28;20213;-88
2023/10/16 13:23:25;;;;;;;3.22;2.70;;;11.30;32.60;;;;;;5048785;28;20198;-88
2023/10/16 13:25:56;;;;;;;3.40;2.50;;;11.20;32.60;;;;;;5043007;28;20198;-89
2023/10/16 13:28:25;;;;;;;6.20;2.50;;;11.30;31.60;;;;;;5044402;28;20202;-87
2023/10/16 13:30:52;;;;;;;4.57;2.60;;;11.40;34.70;;;;;;5028616;28;20271;-87
2023/10/16 13:33:19;;;;;;;3.85;2.15;;;11.50;32.40;;;;;;5036625;28;20214;-87
2023/10/16 13:35:46;;;;;;;3.28;2.30;;;11.60;30.10;;;;;;5046642;28;20288;-87
2023/10/16 13:38:14;;;;;;;2.92;1.90;;;11.60;28.50;;;;;;5053128;28;20198;-88
2023/10/16 13:40:43;;;;;;;4.15;2.55;;;11.70;27.20;;;;;;5033621;28;20261;-88
2023/10/16 13:43:17;;;;;;;3.45;2.20;;;11.70;26.10;;;;;;5038117;28;20628;-89
2023/10/16 13:45:46;;;;;;;2.40;2.20;;;11.50;27.70;;;;;;5046927;28;20904;-88
2023/10/16 13:48:15;;;;;;;3.40;2.40;;;11.50;29.90;;;;;;5049427;28;20280;-86
2023/10/16 13:50:43;;;;;;;3.83;2.28;;;11.40;28.90;;;;;;5051345;28;20225;-87
2023/10/16 13:53:10;;;;;;;7.25;2.42;;;11.40;28.40;;;;;;5051038;28;20685;-86
2023/10/16 13:55:36;;;;;;;6.03;2.53;;;11.30;29.30;;;;;;5047450;28;20205;-86
2023/10/16 13:58:05;;;;;;;2.50;2.25;;;11.30;30.40;;;;;;5050892;28;20206;-86
2023/10/16 14:00:35;;;;;;;4.35;2.60;;;11.20;30.20;;;;;;5037598;28;20281;-86
2023/10/16 14:03:07;;;;;;;5.07;2.60;;;11.20;31.10;;;;;;5049903;28;20206;-87
2023/10/16 14:05:41;;;;;;;3.20;2.58;;;11.20;30.00;;;;;;5035558;28;20198;-87
2023/10/16 14:08:10;;;;;;;3.35;2.13;;;11.30;30.20;;;;;;5049920;28;20190;-86
2023/10/16 14:10:45;;;;;;;3.88;2.50;;;11.20;31.10;;;;;;5031177;28;20550;-86
2023/10/16 14:13:18;;;;;;;3.55;2.38;;;11.10;32.40;;;;;;5044387;28;20217;-87
2023/10/16 14:15:46;;;;;;;3.13;2.58;;;11.00;31.00;;;;;;5027709;28;20202;-88
2023/10/16 14:18:16;;;;;;;2.90;2.20;;;11.10;29.80;;;;;;5040267;28;20205;-87
2023/10/16 14:20:46;;;;;;;7.20;3.00;;;11.00;30.20;;;;;;5049622;28;20202;-88
2023/10/16 14:23:13;;;;;;;3.47;2.30;;;11.00;32.80;;;;;;5047077;28;20206;-87
2023/10/16 14:25:45;;;;;;;3.58;2.40;;;11.00;30.40;;;;;;5031014;28;20198;-86
2023/10/16 14:28:32;;;;;;;17.08;10.30;;;10.90;30.00;;;;;;5031730;28;20221;-87
2023/10/16 14:31:01;;;;;;;8.30;3.70;;;11.00;33.50;;;;;;5043810;28;20194;-87
2023/10/16 14:33:31;;;;;;;3.58;2.50;;;11.00;31.70;;;;;;5043908;28;20987;-87
2023/10/16 14:35:59;;;;;;;4.25;2.30;;;10.90;29.50;;;;;;5032687;28;20201;-85
2023/10/16 14:38:27;;;;;;;4.53;2.70;;;10.90;29.60;;;;;;5049603;28;20281;-86